sensor_id;sensor_type;location;lat;lon;timestamp;temperature;humidity
27026;DHT22;14565;48.626;8.978;2022-09-09T00:01:51;14.00;99.90
27026;DHT22;14565;48.626;8.978;2022-09-09T00:09:46;14.20;99.90
27026;DHT22;14565;48.626;8.978;2022-09-09T00:15:00;14.40;99.90
27026;DHT22;14565;48.626;8.978;2022-09-09T00:20:32;14.40;99.90
27026;DHT22;14565;48.626;8.978;2022-09-09T00:25:42;14.50;99.90
27026;DHT22;14565;48.626;8.978;2022-09-09T00:28:22;14.60;99.90
27026;DHT22;14565;48.626;8.978;2022-09-09T00:30:48;14.50;99.90
27026;DHT22;14565;48.626;8.978;2022-09-09T00:33:17;14.40;99.90
27026;DHT22;14565;48.626;8.978;2022-09-09T00:35:48;14.40;99.90
27026;DHT22;14565;48.626;8.978;2022-09-09T00:38:36;14.40;99.90
27026;DHT22;14565;48.626;8.978;2022-09-09T00:41:11;14.40;99.90
27026;DHT22;14565;48.626;8.978;2022-09-09T00:43:40;14.40;99.90
27026;DHT22;14565;48.626;8.978;2022-09-09T00:57:06;14.50;99.90
27026;DHT22;14565;48.626;8.978;2022-09-09T01:02:16;14.40;99.90
27026;DHT22;14565;48.626;8.978;2022-09-09T01:04:43;14.40;99.90
27026;DHT22;14565;48.626;8.978;2022-09-09T01:07:19;14.30;99.90
27026;DHT22;14565;48.626;8.978;2022-09-09T01:09:51;14.30;99.90
27026;DHT22;14565;48.626;8.978;2022-09-09T01:14:52;14.30;99.90
27026;DHT22;14565;48.626;8.978;2022-09-09T01:17:34;14.30;99.90
27026;DHT22;14565;48.626;8.978;2022-09-09T01:27:43;14.10;99.90
27026;DHT22;14565;48.626;8.978;2022-09-09T01:30:11;14.00;99.90
27026;DHT22;14565;48.626;8.978;2022-09-09T01:32:47;14.00;99.90
27026;DHT22;14565;48.626;8.978;2022-09-09T01:35:27;14.00;99.90
27026;DHT22;14565;48.626;8.978;2022-09-09T01:37:55;13.90;99.90
27026;DHT22;14565;48.626;8.978;2022-09-09T01:40:21;13.90;99.90
27026;DHT22;14565;48.626;8.978;2022-09-09T01:42:47;13.90;99.90
27026;DHT22;14565;48.626;8.978;2022-09-09T01:45:13;13.90;99.90
27026;DHT22;14565;48.626;8.978;2022-09-09T01:47:38;13.90;99.90
27026;DHT22;14565;48.626;8.978;2022-09-09T01:50:04;13.90;99.90
27026;DHT22;14565;48.626;8.978;2022-09-09T01:52:33;13.90;99.90
27026;DHT22;14565;48.626;8.978;2022-09-09T01:55:01;13.90;99.90
27026;DHT22;14565;48.626;8.978;2022-09-09T01:57:28;13.90;99.90
27026;DHT22;14565;48.626;8.978;2022-09-09T02:00:03;13.90;99.90
27026;DHT22;14565;48.626;8.978;2022-09-09T02:02:38;13.80;99.90
27026;DHT22;14565;48.626;8.978;2022-09-09T02:05:16;13.80;99.90
27026;DHT22;14565;48.626;8.978;2022-09-09T02:07:48;13.90;99.90
27026;DHT22;14565;48.626;8.978;2022-09-09T02:10:25;13.90;99.90
27026;DHT22;14565;48.626;8.978;2022-09-09T02:13:07;13.80;99.90
27026;DHT22;14565;48.626;8.978;2022-09-09T02:15:58;13.70;99.90
27026;DHT22;14565;48.626;8.978;2022-09-09T02:18:35;13.70;99.90
27026;DHT22;14565;48.626;8.978;2022-09-09T02:21:02;13.60;99.90
27026;DHT22;14565;48.626;8.978;2022-09-09T02:23:28;13.50;99.90
27026;DHT22;14565;48.626;8.978;2022-09-09T02:25:56;13.50;99.90
27026;DHT22;14565;48.626;8.978;2022-09-09T02:28:26;13.40;99.90
27026;DHT22;14565;48.626;8.978;2022-09-09T02:30:53;13.30;99.90
27026;DHT22;14565;48.626;8.978;2022-09-09T02:33:24;13.30;99.90
27026;DHT22;14565;48.626;8.978;2022-09-09T02:35:53;13.30;99.90
27026;DHT22;14565;48.626;8.978;2022-09-09T02:38:21;13.20;99.90
27026;DHT22;14565;48.626;8.978;2022-09-09T02:40:48;13.20;99.90
27026;DHT22;14565;48.626;8.978;2022-09-09T02:43:14;13.20;99.90
27026;DHT22;14565;48.626;8.978;2022-09-09T02:45:59;13.10;99.90
27026;DHT22;14565;48.626;8.978;2022-09-09T02:56:51;12.90;99.90
27026;DHT22;14565;48.626;8.978;2022-09-09T02:59:20;13.00;99.90
27026;DHT22;14565;48.626;8.978;2022-09-09T03:01:46;13.00;99.90
27026;DHT22;14565;48.626;8.978;2022-09-09T03:04:12;13.00;99.90
27026;DHT22;14565;48.626;8.978;2022-09-09T03:06:38;13.00;99.90
27026;DHT22;14565;48.626;8.978;2022-09-09T03:09:04;13.00;99.90
27026;DHT22;14565;48.626;8.978;2022-09-09T03:11:30;13.00;99.90
27026;DHT22;14565;48.626;8.978;2022-09-09T03:13:55;13.10;99.90
27026;DHT22;14565;48.626;8.978;2022-09-09T03:16:24;12.90;99.90
27026;DHT22;14565;48.626;8.978;2022-09-09T03:18:50;12.80;99.90
27026;DHT22;14565;48.626;8.978;2022-09-09T03:21:16;12.80;99.90
27026;DHT22;14565;48.626;8.978;2022-09-09T03:23:41;12.70;99.90
27026;DHT22;14565;48.626;8.978;2022-09-09T03:26:07;12.70;99.90
27026;DHT22;14565;48.626;8.978;2022-09-09T03:28:33;12.60;99.90
27026;DHT22;14565;48.626;8.978;2022-09-09T03:31:03;12.50;99.90
27026;DHT22;14565;48.626;8.978;2022-09-09T03:33:30;12.50;99.90
27026;DHT22;14565;48.626;8.978;2022-09-09T03:35:56;12.50;99.90
27026;DHT22;14565;48.626;8.978;2022-09-09T03:38:23;12.50;99.90
27026;DHT22;14565;48.626;8.978;2022-09-09T03:40:54;12.60;99.90
27026;DHT22;14565;48.626;8.978;2022-09-09T03:43:24;12.60;99.90
27026;DHT22;14565;48.626;8.978;2022-09-09T03:45:50;12.70;99.90
27026;DHT22;14565;48.626;8.978;2022-09-09T03:48:17;12.70;99.90
27026;DHT22;14565;48.626;8.978;2022-09-09T03:50:52;12.70;99.90
27026;DHT22;14565;48.626;8.978;2022-09-09T03:53:20;12.70;99.90
27026;DHT22;14565;48.626;8.978;2022-09-09T03:55:46;12.50;99.90
27026;DHT22;14565;48.626;8.978;2022-09-09T03:58:14;12.50;99.90
27026;DHT22;14565;48.626;8.978;2022-09-09T04:00:40;12.50;99.90
27026;DHT22;14565;48.626;8.978;2022-09-09T04:03:11;12.50;99.90
27026;DHT22;14565;48.626;8.978;2022-09-09T04:05:39;12.50;99.90
27026;DHT22;14565;48.626;8.978;2022-09-09T04:08:06;12.50;99.90
27026;DHT22;14565;48.626;8.978;2022-09-09T04:10:32;12.60;99.90
27026;DHT22;14565;48.626;8.978;2022-09-09T04:12:58;12.90;99.90
27026;DHT22;14565;48.626;8.978;2022-09-09T04:15:24;13.20;99.90
27026;DHT22;14565;48.626;8.978;2022-09-09T04:17:50;13.10;99.90
27026;DHT22;14565;48.626;8.978;2022-09-09T04:20:16;13.30;99.90
27026;DHT22;14565;48.626;8.978;2022-09-09T04:22:42;13.40;99.90
27026;DHT22;14565;48.626;8.978;2022-09-09T04:25:07;13.40;99.90
27026;DHT22;14565;48.626;8.978;2022-09-09T04:27:33;13.40;99.90
27026;DHT22;14565;48.626;8.978;2022-09-09T04:29:59;13.50;99.90
27026;DHT22;14565;48.626;8.978;2022-09-09T04:32:25;13.60;99.90
27026;DHT22;14565;48.626;8.978;2022-09-09T04:34:53;13.60;99.90
27026;DHT22;14565;48.626;8.978;2022-09-09T04:37:19;13.70;99.90
27026;DHT22;14565;48.626;8.978;2022-09-09T04:39:45;13.60;99.90
27026;DHT22;14565;48.626;8.978;2022-09-09T04:42:11;13.80;99.90
27026;DHT22;14565;48.626;8.978;2022-09-09T04:44:36;13.70;99.90
27026;DHT22;14565;48.626;8.978;2022-09-09T04:47:02;13.90;99.90
27026;DHT22;14565;48.626;8.978;2022-09-09T04:49:28;13.70;99.90
27026;DHT22;14565;48.626;8.978;2022-09-09T04:51:53;13.80;99.90
27026;DHT22;14565;48.626;8.978;2022-09-09T04:54:19;13.80;99.90
27026;DHT22;14565;48.626;8.978;2022-09-09T04:56:45;13.60;99.90
27026;DHT22;14565;48.626;8.978;2022-09-09T04:59:10;13.70;99.90
27026;DHT22;14565;48.626;8.978;2022-09-09T05:01:36;13.60;99.90
27026;DHT22;14565;48.626;8.978;2022-09-09T05:04:02;13.80;99.90
27026;DHT22;14565;48.626;8.978;2022-09-09T05:06:28;13.90;99.90
27026;DHT22;14565;48.626;8.978;2022-09-09T05:08:56;13.80;99.90
27026;DHT22;14565;48.626;8.978;2022-09-09T05:11:25;13.90;99.90
27026;DHT22;14565;48.626;8.978;2022-09-09T05:13:52;13.90;99.90
27026;DHT22;14565;48.626;8.978;2022-09-09T05:16:19;13.80;99.90
27026;DHT22;14565;48.626;8.978;2022-09-09T05:18:45;13.80;99.90
27026;DHT22;14565;48.626;8.978;2022-09-09T05:21:16;13.80;99.90
27026;DHT22;14565;48.626;8.978;2022-09-09T05:23:42;13.70;99.90
27026;DHT22;14565;48.626;8.978;2022-09-09T05:26:12;13.80;99.90
27026;DHT22;14565;48.626;8.978;2022-09-09T05:28:39;14.00;99.90
27026;DHT22;14565;48.626;8.978;2022-09-09T05:31:06;14.00;99.90
27026;DHT22;14565;48.626;8.978;2022-09-09T05:33:36;14.10;99.90
27026;DHT22;14565;48.626;8.978;2022-09-09T05:36:07;14.10;99.90
27026;DHT22;14565;48.626;8.978;2022-09-09T05:38:33;14.00;99.90
27026;DHT22;14565;48.626;8.978;2022-09-09T05:41:00;14.00;99.90
27026;DHT22;14565;48.626;8.978;2022-09-09T05:43:27;14.10;99.90
27026;DHT22;14565;48.626;8.978;2022-09-09T05:46:09;14.20;99.90
27026;DHT22;14565;48.626;8.978;2022-09-09T05:48:37;14.10;99.90
27026;DHT22;14565;48.626;8.978;2022-09-09T05:51:04;14.20;99.90
27026;DHT22;14565;48.626;8.978;2022-09-09T05:53:30;14.20;99.90
27026;DHT22;14565;48.626;8.978;2022-09-09T05:58:33;14.30;99.90
27026;DHT22;14565;48.626;8.978;2022-09-09T06:01:10;14.40;99.90
27026;DHT22;14565;48.626;8.978;2022-09-09T06:03:38;14.50;99.90
27026;DHT22;14565;48.626;8.978;2022-09-09T06:06:06;14.50;99.90
27026;DHT22;14565;48.626;8.978;2022-09-09T06:08:35;14.50;99.90
27026;DHT22;14565;48.626;8.978;2022-09-09T06:13:30;14.60;99.90
27026;DHT22;14565;48.626;8.978;2022-09-09T06:15:56;14.60;99.90
27026;DHT22;14565;48.626;8.978;2022-09-09T06:18:24;14.60;99.90
27026;DHT22;14565;48.626;8.978;2022-09-09T06:20:59;14.70;99.90
27026;DHT22;14565;48.626;8.978;2022-09-09T06:23:33;14.70;99.90
27026;DHT22;14565;48.626;8.978;2022-09-09T06:26:08;14.90;99.90
27026;DHT22;14565;48.626;8.978;2022-09-09T06:28:35;14.90;99.90
27026;DHT22;14565;48.626;8.978;2022-09-09T06:31:06;15.00;99.90
27026;DHT22;14565;48.626;8.978;2022-09-09T06:33:34;15.00;99.90
27026;DHT22;14565;48.626;8.978;2022-09-09T06:36:00;15.10;99.90
27026;DHT22;14565;48.626;8.978;2022-09-09T06:38:26;15.10;99.90
27026;DHT22;14565;48.626;8.978;2022-09-09T06:40:57;15.30;99.90
27026;DHT22;14565;48.626;8.978;2022-09-09T06:43:27;15.40;99.90
27026;DHT22;14565;48.626;8.978;2022-09-09T06:48:20;15.50;99.90
27026;DHT22;14565;48.626;8.978;2022-09-09T06:50:45;15.60;99.90
27026;DHT22;14565;48.626;8.978;2022-09-09T06:53:12;15.80;99.90
27026;DHT22;14565;48.626;8.978;2022-09-09T06:55:37;15.90;99.90
27026;DHT22;14565;48.626;8.978;2022-09-09T06:58:08;16.20;99.90
27026;DHT22;14565;48.626;8.978;2022-09-09T07:00:34;16.30;99.90
27026;DHT22;14565;48.626;8.978;2022-09-09T07:02:59;16.50;99.90
27026;DHT22;14565;48.626;8.978;2022-09-09T07:05:25;16.60;99.90
27026;DHT22;14565;48.626;8.978;2022-09-09T07:07:51;16.60;99.90
27026;DHT22;14565;48.626;8.978;2022-09-09T07:10:17;16.70;99.90
27026;DHT22;14565;48.626;8.978;2022-09-09T07:12:44;16.80;99.90
27026;DHT22;14565;48.626;8.978;2022-09-09T07:15:09;16.90;99.90
27026;DHT22;14565;48.626;8.978;2022-09-09T07:17:36;16.80;99.90
27026;DHT22;14565;48.626;8.978;2022-09-09T07:20:02;16.80;99.90
27026;DHT22;14565;48.626;8.978;2022-09-09T07:22:29;17.00;99.90
27026;DHT22;14565;48.626;8.978;2022-09-09T07:24:55;17.10;99.90
27026;DHT22;14565;48.626;8.978;2022-09-09T07:27:20;17.00;99.90
27026;DHT22;14565;48.626;8.978;2022-09-09T07:29:46;17.10;99.90
27026;DHT22;14565;48.626;8.978;2022-09-09T07:32:12;17.50;99.90
27026;DHT22;14565;48.626;8.978;2022-09-09T07:34:37;18.00;99.90
27026;DHT22;14565;48.626;8.978;2022-09-09T07:37:03;17.60;99.90
27026;DHT22;14565;48.626;8.978;2022-09-09T07:39:29;17.40;99.90
27026;DHT22;14565;48.626;8.978;2022-09-09T07:41:54;17.00;99.90
27026;DHT22;14565;48.626;8.978;2022-09-09T07:44:22;17.00;99.90
27026;DHT22;14565;48.626;8.978;2022-09-09T07:46:48;17.10;99.90
27026;DHT22;14565;48.626;8.978;2022-09-09T07:49:14;17.30;99.90
27026;DHT22;14565;48.626;8.978;2022-09-09T07:51:43;17.40;99.90
27026;DHT22;14565;48.626;8.978;2022-09-09T07:54:11;18.10;99.90
27026;DHT22;14565;48.626;8.978;2022-09-09T07:56:38;18.40;99.90
27026;DHT22;14565;48.626;8.978;2022-09-09T07:59:05;18.70;99.90
27026;DHT22;14565;48.626;8.978;2022-09-09T08:01:33;18.80;99.90
27026;DHT22;14565;48.626;8.978;2022-09-09T08:04:01;18.70;99.90
27026;DHT22;14565;48.626;8.978;2022-09-09T08:06:29;18.90;99.90
27026;DHT22;14565;48.626;8.978;2022-09-09T08:08:56;18.80;99.90
27026;DHT22;14565;48.626;8.978;2022-09-09T08:11:24;18.80;99.90
27026;DHT22;14565;48.626;8.978;2022-09-09T08:13:51;18.90;99.90
27026;DHT22;14565;48.626;8.978;2022-09-09T08:16:26;19.00;99.90
27026;DHT22;14565;48.626;8.978;2022-09-09T08:18:52;19.30;99.90
27026;DHT22;14565;48.626;8.978;2022-09-09T08:21:30;19.40;99.90
27026;DHT22;14565;48.626;8.978;2022-09-09T08:23:58;19.60;99.90
27026;DHT22;14565;48.626;8.978;2022-09-09T08:26:29;19.70;99.90
27026;DHT22;14565;48.626;8.978;2022-09-09T08:28:57;19.70;99.90
27026;DHT22;14565;48.626;8.978;2022-09-09T08:31:33;19.50;99.90
27026;DHT22;14565;48.626;8.978;2022-09-09T08:34:00;19.70;99.90
27026;DHT22;14565;48.626;8.978;2022-09-09T08:36:29;19.80;99.90
27026;DHT22;14565;48.626;8.978;2022-09-09T08:38:56;19.90;99.90
27026;DHT22;14565;48.626;8.978;2022-09-09T08:55:03;21.20;99.90
27026;DHT22;14565;48.626;8.978;2022-09-09T08:57:31;21.30;99.90
27026;DHT22;14565;48.626;8.978;2022-09-09T08:59:58;21.00;99.90
27026;DHT22;14565;48.626;8.978;2022-09-09T09:02:39;20.10;99.90
27026;DHT22;14565;48.626;8.978;2022-09-09T09:05:24;19.80;99.90
27026;DHT22;14565;48.626;8.978;2022-09-09T09:11:06;17.50;99.90
27026;DHT22;14565;48.626;8.978;2022-09-09T09:16:27;16.50;99.90
27026;DHT22;14565;48.626;8.978;2022-09-09T09:18:58;17.00;99.90
27026;DHT22;14565;48.626;8.978;2022-09-09T09:26:43;17.40;99.90
27026;DHT22;14565;48.626;8.978;2022-09-09T09:29:17;17.80;99.90
27026;DHT22;14565;48.626;8.978;2022-09-09T09:31:54;17.90;99.90
27026;DHT22;14565;48.626;8.978;2022-09-09T09:34:20;18.10;99.90
27026;DHT22;14565;48.626;8.978;2022-09-09T09:36:54;18.40;99.90
27026;DHT22;14565;48.626;8.978;2022-09-09T09:39:28;18.70;99.90
27026;DHT22;14565;48.626;8.978;2022-09-09T09:41:54;19.00;99.90
27026;DHT22;14565;48.626;8.978;2022-09-09T09:44:31;19.60;99.90
27026;DHT22;14565;48.626;8.978;2022-09-09T09:47:17;19.50;99.90
27026;DHT22;14565;48.626;8.978;2022-09-09T09:49:57;19.60;99.90
27026;DHT22;14565;48.626;8.978;2022-09-09T09:52:26;19.90;99.90
27026;DHT22;14565;48.626;8.978;2022-09-09T09:54:54;20.20;99.90
27026;DHT22;14565;48.626;8.978;2022-09-09T09:57:29;20.60;99.90
27026;DHT22;14565;48.626;8.978;2022-09-09T10:02:39;21.10;99.90
27026;DHT22;14565;48.626;8.978;2022-09-09T10:07:44;21.60;99.90
27026;DHT22;14565;48.626;8.978;2022-09-09T10:10:16;21.60;99.90
27026;DHT22;14565;48.626;8.978;2022-09-09T10:18:59;22.10;99.90
27026;DHT22;14565;48.626;8.978;2022-09-09T10:21:44;21.70;99.90
27026;DHT22;14565;48.626;8.978;2022-09-09T10:38:57;21.70;99.90
27026;DHT22;14565;48.626;8.978;2022-09-09T10:49:23;21.60;99.90
27026;DHT22;14565;48.626;8.978;2022-09-09T10:57:08;21.10;99.90
27026;DHT22;14565;48.626;8.978;2022-09-09T10:59:39;21.30;99.90
27026;DHT22;14565;48.626;8.978;2022-09-09T11:07:32;20.30;99.90
27026;DHT22;14565;48.626;8.978;2022-09-09T11:10:02;20.00;99.90
27026;DHT22;14565;48.626;8.978;2022-09-09T11:12:34;19.60;99.90
27026;DHT22;14565;48.626;8.978;2022-09-09T11:15:24;19.40;99.90
27026;DHT22;14565;48.626;8.978;2022-09-09T11:17:55;19.20;99.90
27026;DHT22;14565;48.626;8.978;2022-09-09T11:20:22;19.30;99.90
27026;DHT22;14565;48.626;8.978;2022-09-09T11:23:10;19.30;99.90
27026;DHT22;14565;48.626;8.978;2022-09-09T11:25:50;19.10;99.90
27026;DHT22;14565;48.626;8.978;2022-09-09T11:33:51;19.10;99.90
27026;DHT22;14565;48.626;8.978;2022-09-09T11:36:35;18.90;99.90
27026;DHT22;14565;48.626;8.978;2022-09-09T11:42:27;19.40;99.90
27026;DHT22;14565;48.626;8.978;2022-09-09T11:44:52;19.50;99.90
27026;DHT22;14565;48.626;8.978;2022-09-09T11:47:27;19.60;99.90
27026;DHT22;14565;48.626;8.978;2022-09-09T11:52:46;20.20;99.90
27026;DHT22;14565;48.626;8.978;2022-09-09T12:00:45;20.40;99.90
27026;DHT22;14565;48.626;8.978;2022-09-09T12:06:25;21.10;99.90
27026;DHT22;14565;48.626;8.978;2022-09-09T12:08:57;21.10;99.90
27026;DHT22;14565;48.626;8.978;2022-09-09T12:11:29;21.00;99.90
27026;DHT22;14565;48.626;8.978;2022-09-09T12:13:57;20.80;99.90
27026;DHT22;14565;48.626;8.978;2022-09-09T12:16:36;21.00;99.90
27026;DHT22;14565;48.626;8.978;2022-09-09T12:19:03;20.50;99.90
27026;DHT22;14565;48.626;8.978;2022-09-09T12:24:07;20.40;99.90
27026;DHT22;14565;48.626;8.978;2022-09-09T12:32:07;20.10;99.90
27026;DHT22;14565;48.626;8.978;2022-09-09T12:34:39;20.50;99.90
27026;DHT22;14565;48.626;8.978;2022-09-09T12:39:57;20.70;99.90
27026;DHT22;14565;48.626;8.978;2022-09-09T12:42:25;20.80;99.90
27026;DHT22;14565;48.626;8.978;2022-09-09T12:49:58;20.50;99.90
27026;DHT22;14565;48.626;8.978;2022-09-09T12:52:31;20.50;99.90
27026;DHT22;14565;48.626;8.978;2022-09-09T12:55:00;20.80;99.90
27026;DHT22;14565;48.626;8.978;2022-09-09T12:57:36;20.90;99.90
27026;DHT22;14565;48.626;8.978;2022-09-09T13:00:14;21.10;99.90
27026;DHT22;14565;48.626;8.978;2022-09-09T13:02:47;21.20;99.90
27026;DHT22;14565;48.626;8.978;2022-09-09T13:05:20;21.40;99.90
27026;DHT22;14565;48.626;8.978;2022-09-09T13:07:45;21.30;99.90
27026;DHT22;14565;48.626;8.978;2022-09-09T13:10:13;21.20;99.90
27026;DHT22;14565;48.626;8.978;2022-09-09T13:12:40;20.70;99.90
27026;DHT22;14565;48.626;8.978;2022-09-09T13:15:24;20.80;99.90
27026;DHT22;14565;48.626;8.978;2022-09-09T13:17:57;21.00;99.90
27026;DHT22;14565;48.626;8.978;2022-09-09T13:20:26;21.00;99.90
27026;DHT22;14565;48.626;8.978;2022-09-09T13:22:54;20.70;99.90
27026;DHT22;14565;48.626;8.978;2022-09-09T13:25:21;20.60;99.90
27026;DHT22;14565;48.626;8.978;2022-09-09T13:27:53;20.50;99.90
27026;DHT22;14565;48.626;8.978;2022-09-09T13:32:59;20.90;99.90
27026;DHT22;14565;48.626;8.978;2022-09-09T13:35:26;21.30;99.90
27026;DHT22;14565;48.626;8.978;2022-09-09T13:37:52;21.50;99.90
27026;DHT22;14565;48.626;8.978;2022-09-09T13:40:20;21.50;99.90
27026;DHT22;14565;48.626;8.978;2022-09-09T13:42:50;21.20;99.90
27026;DHT22;14565;48.626;8.978;2022-09-09T13:45:21;21.10;99.90
27026;DHT22;14565;48.626;8.978;2022-09-09T13:47:47;21.10;99.90
27026;DHT22;14565;48.626;8.978;2022-09-09T13:50:29;21.20;99.90
27026;DHT22;14565;48.626;8.978;2022-09-09T13:52:55;21.10;99.90
27026;DHT22;14565;48.626;8.978;2022-09-09T13:55:24;21.00;99.40
27026;DHT22;14565;48.626;8.978;2022-09-09T13:57:52;21.10;99.70
27026;DHT22;14565;48.626;8.978;2022-09-09T14:00:18;21.10;98.80
27026;DHT22;14565;48.626;8.978;2022-09-09T14:02:44;21.00;98.30
27026;DHT22;14565;48.626;8.978;2022-09-09T14:05:10;20.90;99.30
27026;DHT22;14565;48.626;8.978;2022-09-09T14:07:38;20.80;98.90
27026;DHT22;14565;48.626;8.978;2022-09-09T14:10:06;20.90;98.60
27026;DHT22;14565;48.626;8.978;2022-09-09T14:12:32;20.90;97.60
27026;DHT22;14565;48.626;8.978;2022-09-09T14:14:57;21.00;97.60
27026;DHT22;14565;48.626;8.978;2022-09-09T14:17:25;21.00;97.80
27026;DHT22;14565;48.626;8.978;2022-09-09T14:19:54;21.00;97.10
27026;DHT22;14565;48.626;8.978;2022-09-09T14:22:20;20.90;96.80
27026;DHT22;14565;48.626;8.978;2022-09-09T14:24:46;21.00;97.10
27026;DHT22;14565;48.626;8.978;2022-09-09T14:27:11;21.20;96.40
27026;DHT22;14565;48.626;8.978;2022-09-09T14:29:37;21.20;96.20
27026;DHT22;14565;48.626;8.978;2022-09-09T14:32:03;21.00;96.40
27026;DHT22;14565;48.626;8.978;2022-09-09T14:34:29;21.20;96.20
27026;DHT22;14565;48.626;8.978;2022-09-09T14:36:55;21.20;96.70
27026;DHT22;14565;48.626;8.978;2022-09-09T14:39:21;21.20;97.70
27026;DHT22;14565;48.626;8.978;2022-09-09T14:41:46;21.10;97.00
27026;DHT22;14565;48.626;8.978;2022-09-09T14:44:12;21.00;96.40
27026;DHT22;14565;48.626;8.978;2022-09-09T14:46:38;20.90;97.00
27026;DHT22;14565;48.626;8.978;2022-09-09T14:49:03;20.80;96.20
27026;DHT22;14565;48.626;8.978;2022-09-09T14:51:30;20.60;97.40
27026;DHT22;14565;48.626;8.978;2022-09-09T14:53:58;20.30;97.40
27026;DHT22;14565;48.626;8.978;2022-09-09T14:56:29;20.30;98.30
27026;DHT22;14565;48.626;8.978;2022-09-09T14:58:57;20.50;98.20
27026;DHT22;14565;48.626;8.978;2022-09-09T15:01:24;20.60;98.50
27026;DHT22;14565;48.626;8.978;2022-09-09T15:04:03;20.80;98.70
27026;DHT22;14565;48.626;8.978;2022-09-09T15:06:31;20.90;99.00
27026;DHT22;14565;48.626;8.978;2022-09-09T15:08:58;21.00;98.40
27026;DHT22;14565;48.626;8.978;2022-09-09T15:11:27;21.10;98.90
27026;DHT22;14565;48.626;8.978;2022-09-09T15:13:53;21.10;98.10
27026;DHT22;14565;48.626;8.978;2022-09-09T15:16:21;21.00;97.70
27026;DHT22;14565;48.626;8.978;2022-09-09T15:18:49;20.80;97.20
27026;DHT22;14565;48.626;8.978;2022-09-09T15:21:17;20.70;97.60
27026;DHT22;14565;48.626;8.978;2022-09-09T15:23:47;20.50;97.50
27026;DHT22;14565;48.626;8.978;2022-09-09T15:26:16;20.30;97.50
27026;DHT22;14565;48.626;8.978;2022-09-09T15:28:43;20.10;97.20
27026;DHT22;14565;48.626;8.978;2022-09-09T15:33:40;20.00;98.10
27026;DHT22;14565;48.626;8.978;2022-09-09T15:36:25;19.80;97.90
27026;DHT22;14565;48.626;8.978;2022-09-09T15:38:52;19.60;98.40
27026;DHT22;14565;48.626;8.978;2022-09-09T15:41:20;19.50;98.70
27026;DHT22;14565;48.626;8.978;2022-09-09T15:43:46;19.40;99.40
27026;DHT22;14565;48.626;8.978;2022-09-09T15:48:56;19.30;99.30
27026;DHT22;14565;48.626;8.978;2022-09-09T15:51:24;19.30;99.90
27026;DHT22;14565;48.626;8.978;2022-09-09T15:53:57;19.30;99.90
27026;DHT22;14565;48.626;8.978;2022-09-09T15:56:25;19.40;99.90
27026;DHT22;14565;48.626;8.978;2022-09-09T15:58:51;19.30;99.90
27026;DHT22;14565;48.626;8.978;2022-09-09T16:01:18;19.20;99.40
27026;DHT22;14565;48.626;8.978;2022-09-09T16:03:44;19.10;99.90
27026;DHT22;14565;48.626;8.978;2022-09-09T16:06:13;19.20;99.90
27026;DHT22;14565;48.626;8.978;2022-09-09T16:08:41;19.20;99.90
27026;DHT22;14565;48.626;8.978;2022-09-09T16:11:16;19.20;99.90
27026;DHT22;14565;48.626;8.978;2022-09-09T16:13:43;19.20;99.90
27026;DHT22;14565;48.626;8.978;2022-09-09T16:16:11;19.20;99.90
27026;DHT22;14565;48.626;8.978;2022-09-09T16:18:41;19.20;99.80
27026;DHT22;14565;48.626;8.978;2022-09-09T16:21:22;19.40;99.40
27026;DHT22;14565;48.626;8.978;2022-09-09T16:23:50;19.40;99.10
27026;DHT22;14565;48.626;8.978;2022-09-09T16:26:17;19.40;99.20
27026;DHT22;14565;48.626;8.978;2022-09-09T16:28:43;19.30;98.30
27026;DHT22;14565;48.626;8.978;2022-09-09T16:31:13;19.30;98.90
27026;DHT22;14565;48.626;8.978;2022-09-09T16:33:39;19.30;98.60
27026;DHT22;14565;48.626;8.978;2022-09-09T16:36:09;19.00;99.30
27026;DHT22;14565;48.626;8.978;2022-09-09T16:38:36;18.90;99.50
27026;DHT22;14565;48.626;8.978;2022-09-09T16:41:02;18.70;99.90
27026;DHT22;14565;48.626;8.978;2022-09-09T16:43:30;18.60;99.90
27026;DHT22;14565;48.626;8.978;2022-09-09T16:45:56;18.70;99.90
27026;DHT22;14565;48.626;8.978;2022-09-09T16:48:21;18.60;99.90
27026;DHT22;14565;48.626;8.978;2022-09-09T16:50:47;18.70;99.90
27026;DHT22;14565;48.626;8.978;2022-09-09T16:53:14;18.70;99.90
27026;DHT22;14565;48.626;8.978;2022-09-09T16:55:40;18.50;99.90
27026;DHT22;14565;48.626;8.978;2022-09-09T16:58:15;18.40;99.90
27026;DHT22;14565;48.626;8.978;2022-09-09T17:00:41;18.40;99.90
27026;DHT22;14565;48.626;8.978;2022-09-09T17:03:12;18.30;99.90
27026;DHT22;14565;48.626;8.978;2022-09-09T17:05:41;18.30;99.90
27026;DHT22;14565;48.626;8.978;2022-09-09T17:08:07;18.30;99.90
27026;DHT22;14565;48.626;8.978;2022-09-09T17:10:33;18.20;99.90
27026;DHT22;14565;48.626;8.978;2022-09-09T17:12:58;18.10;99.90
27026;DHT22;14565;48.626;8.978;2022-09-09T17:15:24;18.00;99.90
27026;DHT22;14565;48.626;8.978;2022-09-09T17:17:50;18.00;99.90
27026;DHT22;14565;48.626;8.978;2022-09-09T17:20:19;17.90;99.90
27026;DHT22;14565;48.626;8.978;2022-09-09T17:22:45;17.80;99.90
27026;DHT22;14565;48.626;8.978;2022-09-09T17:25:10;17.60;99.90
27026;DHT22;14565;48.626;8.978;2022-09-09T17:27:36;17.40;99.90
27026;DHT22;14565;48.626;8.978;2022-09-09T17:30:03;17.30;99.90
27026;DHT22;14565;48.626;8.978;2022-09-09T17:32:29;17.30;99.90
27026;DHT22;14565;48.626;8.978;2022-09-09T17:34:55;17.40;99.90
27026;DHT22;14565;48.626;8.978;2022-09-09T17:37:21;17.40;99.90
27026;DHT22;14565;48.626;8.978;2022-09-09T17:39:47;17.40;99.90
27026;DHT22;14565;48.626;8.978;2022-09-09T17:42:12;17.40;99.90
27026;DHT22;14565;48.626;8.978;2022-09-09T17:44:39;17.30;99.90
27026;DHT22;14565;48.626;8.978;2022-09-09T17:47:07;17.20;99.90
27026;DHT22;14565;48.626;8.978;2022-09-09T17:49:32;17.20;99.90
27026;DHT22;14565;48.626;8.978;2022-09-09T17:51:59;17.10;99.90
27026;DHT22;14565;48.626;8.978;2022-09-09T17:54:24;17.10;99.90
27026;DHT22;14565;48.626;8.978;2022-09-09T17:56:50;17.00;99.90
27026;DHT22;14565;48.626;8.978;2022-09-09T17:59:17;17.00;99.90
27026;DHT22;14565;48.626;8.978;2022-09-09T18:01:45;17.10;99.90
27026;DHT22;14565;48.626;8.978;2022-09-09T18:04:13;17.00;99.90
27026;DHT22;14565;48.626;8.978;2022-09-09T18:06:45;17.10;99.90
27026;DHT22;14565;48.626;8.978;2022-09-09T18:09:17;17.10;99.90
27026;DHT22;14565;48.626;8.978;2022-09-09T18:11:45;17.10;99.90
27026;DHT22;14565;48.626;8.978;2022-09-09T18:14:15;17.10;99.90
27026;DHT22;14565;48.626;8.978;2022-09-09T18:16:42;17.00;99.90
27026;DHT22;14565;48.626;8.978;2022-09-09T18:19:10;17.00;99.90
27026;DHT22;14565;48.626;8.978;2022-09-09T18:21:38;17.10;99.90
27026;DHT22;14565;48.626;8.978;2022-09-09T18:24:07;16.90;99.90
27026;DHT22;14565;48.626;8.978;2022-09-09T18:26:34;16.90;99.90
27026;DHT22;14565;48.626;8.978;2022-09-09T18:29:03;16.90;99.90